Time;durP1;ratioP1;P1;durP2;ratioP2;P2;SDS_P1;SDS_P2;PMS_P1;PMS_P2;Temp;Humidity;BMP_temperature;BMP_pressure;BME280_temperature;BME280_humidity;BME280_pressure;Samples;Min_cycle;Max_cycle;Signal;HPM_P1;HPM_P2
2022/01/29 00:01:18;;;;;;;11.10;5.55;;;;;;;1.47;57.38;95903.59;5027366;28;20036;-74
2022/01/29 00:03:44;;;;;;;8.63;4.80;;;;;;;1.43;56.97;95890.69;5026553;28;20045;-74
2022/01/29 00:06:09;;;;;;;8.55;4.95;;;;;;;1.52;56.35;95894.47;5026920;28;20402;-74
2022/01/29 00:08:35;;;;;;;10.38;5.63;;;;;;;1.51;56.59;95896.28;5025774;28;20083;-75
2022/01/29 00:11:08;;;;;;;9.10;5.05;;;;;;;1.55;56.28;95891.59;5025104;28;20033;-75
2022/01/29 00:13:34;;;;;;;11.27;5.82;;;;;;;1.52;56.57;95900.63;5027284;28;20033;-75
2022/01/29 00:16:00;;;;;;;7.60;4.85;;;;;;;1.43;56.79;95899.47;5024606;28;20099;-75
2022/01/29 00:18:25;;;;;;;7.47;4.88;;;;;;;1.54;56.99;95901.34;5027171;28;20037;-75
2022/01/29 00:20:51;;;;;;;8.68;5.68;;;;;;;1.56;57.17;95902.09;5024866;28;20021;-76
2022/01/29 00:23:16;;;;;;;10.32;5.95;;;;;;;1.56;58.09;95910.03;5026853;28;20475;-74
2022/01/29 00:25:42;;;;;;;9.55;5.60;;;;;;;1.60;57.50;95908.84;5026550;28;20443;-74
2022/01/29 00:28:07;;;;;;;10.23;5.90;;;;;;;1.58;57.85;95902.00;5026196;28;20037;-75
2022/01/29 00:30:40;;;;;;;11.45;5.60;;;;;;;1.57;58.38;95906.41;5026948;28;20037;-75
2022/01/29 00:33:05;;;;;;;11.77;5.78;;;;;;;1.56;58.42;95912.69;5024529;28;20065;-75
2022/01/29 00:35:30;;;;;;;10.40;6.03;;;;;;;1.55;57.87;95899.53;5025889;28;20034;-75
2022/01/29 00:37:56;;;;;;;13.45;6.90;;;;;;;1.41;59.22;95903.16;5025589;28;20036;-75
2022/01/29 00:40:22;;;;;;;12.48;7.45;;;;;;;1.37;59.17;95893.78;4992782;28;20026;-75
2022/01/29 00:42:48;;;;;;;10.48;7.05;;;;;;;1.40;59.59;95888.28;5024825;28;20087;-75
2022/01/29 00:45:13;;;;;;;10.50;6.65;;;;;;;1.50;59.53;95889.28;5024817;28;20185;-74
2022/01/29 00:47:39;;;;;;;10.25;6.55;;;;;;;1.50;59.08;95896.41;5026605;28;20030;-75
2022/01/29 00:50:05;;;;;;;13.23;6.68;;;;;;;1.48;60.02;95892.03;5024139;28;20404;-74
2022/01/29 00:52:30;;;;;;;10.30;6.32;;;;;;;1.52;59.87;95897.97;5027148;28;20619;-74
2022/01/29 00:54:55;;;;;;;12.73;7.28;;;;;;;1.50;59.45;95896.41;5025375;28;20022;-75
2022/01/29 00:57:21;;;;;;;12.52;7.47;;;;;;;1.52;60.08;95900.63;5025011;28;20029;-74
2022/01/29 00:59:47;;;;;;;11.32;7.53;;;;;;;1.47;60.28;95894.81;5025589;28;20068;-76
2022/01/29 01:02:13;;;;;;;10.80;6.90;;;;;;;1.48;60.33;95892.03;5026765;28;20408;-76
2022/01/29 01:04:39;;;;;;;14.25;7.10;;;;;;;1.45;59.88;95891.44;5026568;28;20033;-76
2022/01/29 01:07:08;;;;;;;13.07;7.43;;;;;;;1.40;60.42;95893.56;5007928;28;20399;-75
2022/01/29 01:09:33;;;;;;;11.35;6.93;;;;;;;1.30;60.94;95891.56;5026737;28;20381;-74
2022/01/29 01:11:59;;;;;;;12.80;7.55;;;;;;;1.31;60.92;95887.13;5007419;28;20044;-74
2022/01/29 01:14:24;;;;;;;11.68;7.20;;;;;;;1.31;60.74;95881.81;5026688;28;20091;-76
2022/01/29 01:16:50;;;;;;;14.57;8.65;;;;;;;1.35;61.26;95865.63;5007544;28;20032;-76
2022/01/29 01:19:15;;;;;;;13.85;8.30;;;;;;;1.36;60.84;95861.22;5026304;28;20022;-76
2022/01/29 01:21:41;;;;;;;11.23;7.10;;;;;;;1.37;61.06;95862.06;5024671;28;20041;-76
2022/01/29 01:24:06;;;;;;;12.82;7.60;;;;;;;1.25;61.12;95863.75;5024386;28;20021;-76
2022/01/29 01:26:31;;;;;;;12.90;7.35;;;;;;;1.26;60.99;95876.88;5025061;28;20079;-74
2022/01/29 01:28:57;;;;;;;11.88;7.55;;;;;;;1.23;61.63;95879.72;5023784;28;20025;-74
2022/01/29 01:31:22;;;;;;;14.73;7.55;;;;;;;1.17;62.17;95883.66;5026637;28;20022;-75
2022/01/29 01:33:48;;;;;;;13.40;7.97;;;;;;;1.10;62.23;95888.53;5007154;28;20026;-73
2022/01/29 01:36:17;;;;;;;13.80;8.25;;;;;;;0.94;62.71;95883.47;5025228;28;20030;-74
2022/01/29 01:38:48;;;;;;;13.85;7.88;;;;;;;0.94;62.93;95877.31;5025512;28;20026;-74
2022/01/29 01:41:20;;;;;;;14.48;7.68;;;;;;;0.86;63.59;95877.84;5026010;28;20025;-75
2022/01/29 01:43:45;;;;;;;13.40;7.40;;;;;;;0.97;62.32;95882.38;5009304;28;20025;-76
2022/01/29 01:46:10;;;;;;;13.32;7.35;;;;;;;0.84;62.62;95871.81;5023543;28;20036;-75
2022/01/29 01:48:36;;;;;;;13.90;7.82;;;;;;;0.83;63.14;95875.44;5025317;28;20029;-75
2022/01/29 01:51:01;;;;;;;13.30;7.35;;;;;;;0.84;63.18;95875.31;5024725;28;20021;-75
2022/01/29 01:53:27;;;;;;;12.65;7.82;;;;;;;0.83;62.51;95886.84;5024909;28;20046;-76
2022/01/29 01:55:52;;;;;;;12.63;6.95;;;;;;;0.85;62.65;95873.53;5007522;28;20032;-75
2022/01/29 01:58:18;;;;;;;13.10;8.50;;;;;;;0.74;62.90;95872.47;5025870;28;20045;-75
2022/01/29 02:00:43;;;;;;;10.43;6.93;;;;;;;0.82;63.67;95873.75;5024621;28;20025;-75
2022/01/29 02:03:09;;;;;;;13.27;7.95;;;;;;;0.85;62.88;95871.72;5023854;28;20041;-75
2022/01/29 02:05:35;;;;;;;15.57;7.80;;;;;;;0.91;63.00;95875.75;5024921;28;20039;-74
2022/01/29 02:08:01;;;;;;;13.85;7.47;;;;;;;0.81;63.55;95872.03;5022951;28;20025;-74
2022/01/29 02:10:27;;;;;;;11.10;7.55;;;;;;;0.78;63.63;95874.88;5029090;28;20029;-75
2022/01/29 02:12:57;;;;;;;10.70;7.38;;;;;;;0.80;63.74;95873.00;5028499;28;20091;-75
2022/01/29 02:15:23;;;;;;;11.18;7.18;;;;;;;0.81;63.44;95874.69;5029363;28;20091;-75
2022/01/29 02:17:49;;;;;;;12.98;8.30;;;;;;;0.73;63.63;95875.22;5011127;28;20033;-75
2022/01/29 02:20:15;;;;;;;10.90;7.63;;;;;;;0.76;64.02;95872.34;5010885;28;20033;-74
2022/01/29 02:22:42;;;;;;;13.85;7.75;;;;;;;0.76;64.21;95874.16;5028101;28;20025;-75
2022/01/29 02:25:41;;;;;;;11.05;6.85;;;;;;;0.82;63.54;95884.31;5028057;28;20439;-75
2022/01/29 02:28:09;;;;;;;11.18;7.70;;;;;;;0.80;64.33;95881.78;5029058;28;20034;-75
2022/01/29 02:30:35;;;;;;;12.60;7.35;;;;;;;0.79;64.12;95887.16;5027141;28;20079;-75
2022/01/29 02:33:04;;;;;;;11.80;7.38;;;;;;;0.77;64.35;95887.28;5011350;28;20036;-75
2022/01/29 02:35:29;;;;;;;12.25;7.45;;;;;;;0.82;64.36;95886.94;5027701;28;20041;-75
2022/01/29 02:37:55;;;;;;;14.32;7.57;;;;;;;0.89;63.95;95882.09;5026807;28;20034;-75
2022/01/29 02:40:24;;;;;;;11.68;7.10;;;;;;;0.90;64.43;95891.69;5029094;28;20025;-75
2022/01/29 02:42:52;;;;;;;13.40;7.38;;;;;;;0.87;64.78;95890.13;5026435;28;20503;-75
2022/01/29 02:45:17;;;;;;;11.80;7.97;;;;;;;0.96;63.68;95891.28;5027678;28;20151;-75
2022/01/29 02:47:43;;;;;;;12.80;7.35;;;;;;;0.96;63.54;95899.19;5028097;28;20025;-75
2022/01/29 02:50:08;;;;;;;14.35;8.30;;;;;;;0.89;63.96;95895.31;5028497;28;20390;-75
2022/01/29 02:52:34;;;;;;;12.35;7.38;;;;;;;1.01;63.98;95902.38;5028254;28;20037;-75
2022/01/29 02:55:00;;;;;;;13.20;7.70;;;;;;;0.90;64.93;95899.63;5028053;28;20048;-75
2022/01/29 02:57:25;;;;;;;11.68;7.82;;;;;;;0.97;64.68;95900.88;5028696;28;20021;-77
2022/01/29 02:59:51;;;;;;;13.88;7.63;;;;;;;0.89;64.94;95900.59;5027507;28;20033;-75
2022/01/29 03:02:17;;;;;;;13.05;7.68;;;;;;;1.00;63.88;95897.19;5027527;28;20036;-75
2022/01/29 03:04:43;;;;;;;10.85;6.82;;;;;;;0.86;64.07;95904.25;5027641;28;20331;-75
2022/01/29 03:07:08;;;;;;;10.65;7.28;;;;;;;0.90;64.79;95912.81;5028539;28;20032;-75
2022/01/29 03:09:33;;;;;;;13.40;7.25;;;;;;;0.96;64.25;95907.13;5027452;28;20036;-76
2022/01/29 03:11:59;;;;;;;14.15;7.32;;;;;;;1.02;64.29;95906.69;5026657;28;20037;-75
2022/01/29 03:14:24;;;;;;;9.90;7.50;;;;;;;0.95;64.02;95908.91;5028185;28;20468;-81
2022/01/29 03:16:50;;;;;;;10.50;6.80;;;;;;;1.04;63.62;95909.22;5009656;28;20026;-76
2022/01/29 03:19:15;;;;;;;10.10;6.47;;;;;;;1.04;63.01;95909.22;5028325;28;20025;-75
2022/01/29 03:21:41;;;;;;;13.85;7.28;;;;;;;1.01;63.11;95907.66;5026722;28;20033;-77
2022/01/29 03:24:06;;;;;;;9.50;6.80;;;;;;;1.07;62.89;95911.66;5027238;28;20025;-75
2022/01/29 03:26:32;;;;;;;12.85;6.97;;;;;;;1.11;62.94;95911.34;5026948;28;20420;-75
2022/01/29 03:28:57;;;;;;;12.30;7.03;;;;;;;1.20;62.16;95914.28;5026735;28;20431;-75
2022/01/29 03:31:26;;;;;;;10.63;7.47;;;;;;;1.10;62.59;95914.09;5026008;28;20029;-75
2022/01/29 03:33:52;;;;;;;13.02;6.40;;;;;;;1.14;62.22;95914.72;5027439;28;20025;-75
2022/01/29 03:36:17;;;;;;;14.23;6.47;;;;;;;1.05;62.65;95901.19;5010523;28;20075;-75
2022/01/29 03:38:43;;;;;;;9.52;6.70;;;;;;;1.04;62.96;95909.22;5009106;28;20365;-74
2022/01/29 03:41:10;;;;;;;10.00;6.55;;;;;;;1.09;62.45;95900.06;5028239;28;20026;-74
2022/01/29 03:43:43;;;;;;;11.93;6.95;;;;;;;0.97;63.49;95908.81;5025231;28;20476;-75
2022/01/29 03:46:08;;;;;;;11.35;7.03;;;;;;;1.01;63.56;95920.88;5027777;28;20029;-75
2022/01/29 03:48:33;;;;;;;12.52;7.40;;;;;;;1.04;62.76;95907.44;5027121;28;20037;-75
2022/01/29 03:50:59;;;;;;;10.52;6.93;;;;;;;1.02;62.73;95905.84;5026130;28;20026;-76
2022/01/29 03:53:24;;;;;;;11.65;6.78;;;;;;;0.99;63.89;95906.91;5025919;28;20327;-75
2022/01/29 03:55:50;;;;;;;10.85;6.97;;;;;;;0.97;63.52;95907.00;5026564;28;20022;-74
2022/01/29 03:58:15;;;;;;;11.27;7.60;;;;;;;1.04;62.72;95904.81;5028097;28;20071;-74
2022/01/29 04:00:41;;;;;;;10.95;6.70;;;;;;;0.99;63.70;95896.34;5026219;28;20066;-75
2022/01/29 04:03:07;;;;;;;11.18;6.63;;;;;;;0.96;63.68;95896.56;5027841;28;20029;-75
2022/01/29 04:05:32;;;;;;;10.77;6.65;;;;;;;1.02;63.46;95901.41;5025144;28;20026;-74
2022/01/29 04:07:58;;;;;;;9.68;6.53;;;;;;;1.04;63.02;95898.66;5027447;28;20025;-75
2022/01/29 04:10:24;;;;;;;10.77;7.03;;;;;;;1.09;62.94;95907.97;5025811;28;20029;-76
2022/01/29 04:12:52;;;;;;;10.50;7.05;;;;;;;1.05;63.36;95895.91;5025098;28;20060;-74
2022/01/29 04:15:17;;;;;;;8.77;6.20;;;;;;;0.96;62.98;95892.13;5026094;28;20420;-75
2022/01/29 04:17:43;;;;;;;11.90;7.43;;;;;;;1.05;63.53;95898.56;5024598;28;20083;-75
2022/01/29 04:20:08;;;;;;;11.90;7.13;;;;;;;1.05;63.09;95901.19;5027596;28;20496;-74
2022/01/29 04:22:34;;;;;;;11.27;6.88;;;;;;;1.02;63.61;95896.13;5026089;28;20112;-74
2022/01/29 04:24:59;;;;;;;8.25;6.22;;;;;;;0.90;63.43;95896.97;5027177;28;20071;-74
2022/01/29 04:27:34;;;;;;;10.70;6.68;;;;;;;0.79;64.29;95898.56;5024975;28;20281;-75
2022/01/29 04:30:06;;;;;;;10.85;6.72;;;;;;;0.74;64.25;95898.03;5026806;28;20034;-75
2022/01/29 04:35:18;;;;;;;10.13;6.78;;;;;;;0.86;63.83;95901.63;5034607;28;20450;-74
2022/01/29 04:37:43;;;;;;;11.63;6.78;;;;;;;0.86;63.75;95902.47;5008991;28;20033;-74
2022/01/29 04:40:09;;;;;;;9.13;6.13;;;;;;;0.88;63.40;95901.50;5024579;28;20567;-74
2022/01/29 04:42:35;;;;;;;8.32;5.95;;;;;;;0.91;63.23;95898.66;5026446;28;20415;-75
2022/01/29 04:45:00;;;;;;;10.50;7.15;;;;;;;0.91;63.70;95896.88;5025473;28;20033;-75
2022/01/29 04:47:26;;;;;;;8.95;5.85;;;;;;;0.99;62.66;95896.34;5026448;28;20049;-75
2022/01/29 04:49:51;;;;;;;8.43;6.35;;;;;;;0.90;63.93;95903.13;5025421;28;20026;-75
2022/01/29 04:52:18;;;;;;;8.63;5.88;;;;;;;0.91;63.27;95896.03;5025162;28;20061;-74
2022/01/29 04:54:43;;;;;;;10.55;6.50;;;;;;;0.90;63.89;95912.81;5026815;28;20084;-75
2022/01/29 04:57:08;;;;;;;7.68;5.38;;;;;;;0.96;63.00;95909.75;5025492;28;20084;-76
2022/01/29 04:59:34;;;;;;;9.02;5.78;;;;;;;0.88;63.50;95904.16;5026783;28;20021;-76
2022/01/29 05:01:59;;;;;;;11.48;5.63;;;;;;;0.89;63.68;95917.25;5008112;28;20361;-76
2022/01/29 05:04:25;;;;;;;8.65;5.57;;;;;;;0.89;63.78;95913.78;5026325;28;20022;-75
2022/01/29 05:06:50;;;;;;;10.45;5.82;;;;;;;0.86;63.57;95917.47;5024762;28;20413;-75
2022/01/29 05:09:16;;;;;;;8.55;5.68;;;;;;;0.86;63.78;95918.31;5025658;28;20029;-76
2022/01/29 05:11:45;;;;;;;9.45;5.97;;;;;;;0.87;64.37;95913.91;5026875;28;20056;-76
2022/01/29 05:14:18;;;;;;;13.02;6.60;;;;;;;0.81;64.60;95909.88;5025196;28;20068;-76
2022/01/29 05:17:18;;;;;;;9.10;6.38;;;;;;;0.78;64.27;95907.44;5026614;28;20155;-76
2022/01/29 05:27:41;;;;;;;9.50;7.10;;;;;;;0.77;64.83;95923.38;5025583;28;20036;-75
2022/01/29 05:30:06;;;;;;;10.07;6.50;;;;;;;0.72;65.26;95927.19;5025961;28;20025;-75
2022/01/29 05:32:32;;;;;;;9.82;6.40;;;;;;;0.79;64.89;95930.25;5026324;28;20400;-75
2022/01/29 05:34:57;;;;;;;12.98;7.45;;;;;;;0.59;65.99;95942.16;5007872;28;20025;-75
2022/01/29 05:37:23;;;;;;;11.40;7.45;;;;;;;0.67;65.70;95946.91;5026451;28;20025;-75
2022/01/29 05:39:48;;;;;;;10.63;7.10;;;;;;;0.73;64.75;95942.06;5025085;28;20037;-76
2022/01/29 05:42:13;;;;;;;10.73;7.15;;;;;;;0.84;64.64;95949.28;5026332;28;20084;-75
2022/01/29 05:44:39;;;;;;;9.20;6.50;;;;;;;0.66;65.49;95955.78;5028660;28;20021;-75
2022/01/29 05:47:04;;;;;;;11.77;7.05;;;;;;;0.70;65.13;95958.13;5028560;28;20029;-75
2022/01/29 05:49:30;;;;;;;9.15;6.57;;;;;;;0.65;65.12;95956.72;5029515;28;20021;-75
2022/01/29 05:51:56;;;;;;;9.57;6.57;;;;;;;0.70;65.56;95965.19;5027881;28;20041;-75
2022/01/29 05:54:21;;;;;;;11.07;7.07;;;;;;;0.71;65.73;95975.66;5028476;28;20030;-76
2022/01/29 05:56:47;;;;;;;13.75;7.82;;;;;;;0.67;65.31;95970.69;5029189;28;20049;-74
2022/01/29 05:59:12;;;;;;;13.35;8.63;;;;;;;0.76;65.66;95977.16;5012166;28;20032;-75
2022/01/29 06:01:38;;;;;;;10.48;7.18;;;;;;;0.83;65.33;95971.34;5028444;28;20037;-75
2022/01/29 06:04:05;;;;;;;11.52;7.72;;;;;;;0.86;65.50;95965.00;5028722;28;20025;-75
2022/01/29 06:06:31;;;;;;;12.45;7.53;;;;;;;0.91;65.29;95972.63;5027712;28;20148;-75
2022/01/29 06:08:56;;;;;;;11.25;7.57;;;;;;;0.98;64.66;95979.19;5029670;28;20052;-76
2022/01/29 06:11:22;;;;;;;11.23;7.20;;;;;;;1.00;65.14;95972.00;5028869;28;20029;-76
2022/01/29 06:13:47;;;;;;;11.90;7.13;;;;;;;1.07;64.88;95983.84;5027885;28;20174;-76
2022/01/29 06:16:13;;;;;;;11.40;7.45;;;;;;;0.95;65.63;95985.50;5028074;28;20518;-75
2022/01/29 06:18:38;;;;;;;14.50;7.57;;;;;;;0.99;65.01;95986.16;5028213;28;20033;-76
2022/01/29 06:21:04;;;;;;;13.40;7.30;;;;;;;0.90;65.96;95979.72;5029641;28;20033;-75
2022/01/29 06:23:34;;;;;;;12.77;7.80;;;;;;;1.00;64.90;95982.56;5028270;28;20408;-75
2022/01/29 06:26:01;;;;;;;15.07;8.02;;;;;;;1.13;64.71;95981.75;5028211;28;20037;-76
2022/01/29 06:28:27;;;;;;;13.20;8.25;;;;;;;1.19;64.85;95983.97;5027120;28;20052;-77
2022/01/29 06:30:53;;;;;;;11.25;8.02;;;;;;;1.41;63.49;95985.13;5011281;28;20065;-76
2022/01/29 06:36:40;;;;;;;10.40;7.28;;;;;;;1.82;62.44;95984.00;5028040;28;20094;-75
2022/01/29 06:39:06;;;;;;;11.23;6.93;;;;;;;1.63;63.13;95979.16;5028872;28;20029;-78
2022/01/29 06:41:31;;;;;;;10.55;7.55;;;;;;;1.70;62.52;95987.53;5010535;28;20100;-75
2022/01/29 06:43:57;;;;;;;11.60;7.10;;;;;;;1.71;62.74;95991.84;5027427;28;20028;-76
2022/01/29 06:46:22;;;;;;;10.27;7.00;;;;;;;1.64;62.98;95995.88;5028667;28;20014;-75
2022/01/29 06:48:47;;;;;;;11.55;7.18;;;;;;;1.58;63.02;95994.53;5027993;28;20130;-75
2022/01/29 06:51:13;;;;;;;10.23;7.03;;;;;;;1.60;63.11;95990.81;5028951;28;20037;-76
2022/01/29 06:53:39;;;;;;;11.18;7.22;;;;;;;1.63;62.86;95994.22;5027496;28;20060;-75
2022/01/29 06:56:05;;;;;;;11.93;7.93;;;;;;;1.60;62.78;95998.75;5026936;28;20116;-76
2022/01/29 06:58:30;;;;;;;11.75;7.90;;;;;;;1.61;62.57;96004.91;5026186;28;20048;-74
2022/01/29 07:00:55;;;;;;;14.27;6.93;;;;;;;1.57;62.45;96000.75;5028561;28;20037;-78
2022/01/29 07:03:21;;;;;;;10.25;6.47;;;;;;;1.75;62.49;96011.00;5010190;28;20083;-76
2022/01/29 07:05:49;;;;;;;8.48;6.45;;;;;;;2.12;61.76;96010.19;5026615;28;20413;-77
2022/01/29 07:08:14;;;;;;;11.10;7.07;;;;;;;1.91;61.68;96014.25;5027199;28;20453;-75
2022/01/29 07:10:40;;;;;;;10.25;6.85;;;;;;;2.06;61.83;96007.00;5026104;28;20029;-77
2022/01/29 07:13:06;;;;;;;9.95;6.32;;;;;;;2.02;61.31;96010.84;5028727;28;20462;-77
2022/01/29 07:15:32;;;;;;;7.72;5.80;;;;;;;2.18;61.11;96010.59;5009164;28;20030;-77
2022/01/29 07:17:57;;;;;;;10.05;6.43;;;;;;;2.14;61.25;96008.28;5028426;28;20017;-77
2022/01/29 07:20:22;;;;;;;11.50;7.38;;;;;;;1.96;61.29;96014.78;5027290;28;20026;-77
2022/01/29 07:22:48;;;;;;;9.63;6.78;;;;;;;2.33;60.69;96013.09;5028063;28;20389;-76
2022/01/29 07:25:13;;;;;;;9.75;6.57;;;;;;;2.65;58.90;96024.91;5026850;28;20029;-75
2022/01/29 07:27:39;;;;;;;10.00;6.50;;;;;;;2.66;59.33;96018.69;5026804;28;20341;-77
2022/01/29 07:30:05;;;;;;;9.90;6.72;;;;;;;2.68;59.25;96020.25;5028473;28;20025;-76
2022/01/29 07:32:31;;;;;;;10.32;6.57;;;;;;;2.61;59.18;96028.78;5026531;28;20108;-75
2022/01/29 07:34:57;;;;;;;13.07;7.30;;;;;;;2.53;60.11;96024.88;5026770;28;20029;-74
2022/01/29 07:37:22;;;;;;;10.45;6.57;;;;;;;2.44;59.85;96029.03;5025494;28;20018;-78
2022/01/29 07:39:48;;;;;;;9.82;7.03;;;;;;;2.30;60.52;96043.28;5009991;28;20095;-77
2022/01/29 07:42:13;;;;;;;10.10;6.88;;;;;;;2.07;61.53;96035.19;5027441;28;20052;-76
2022/01/29 07:44:38;;;;;;;11.77;7.03;;;;;;;2.05;61.75;96036.22;5025614;28;20044;-75
2022/01/29 07:47:04;;;;;;;11.48;6.93;;;;;;;1.88;61.81;96035.66;5010077;28;20458;-75
2022/01/29 07:49:30;;;;;;;11.30;7.57;;;;;;;2.02;62.15;96036.44;5026509;28;20451;-78
2022/01/29 07:51:55;;;;;;;9.73;7.22;;;;;;;2.08;61.80;96042.16;5026595;28;20032;-76
2022/01/29 07:54:21;;;;;;;11.95;7.80;;;;;;;2.07;61.40;96042.28;5025211;28;20025;-76
2022/01/29 07:56:46;;;;;;;10.65;7.45;;;;;;;2.20;61.58;96044.88;5026196;28;20029;-75
2022/01/29 07:59:12;;;;;;;12.50;7.10;;;;;;;2.23;60.71;96052.59;5026791;28;20075;-75
2022/01/29 08:01:37;;;;;;;13.00;8.02;;;;;;;2.27;61.19;96050.59;5027166;28;20030;-76
2022/01/29 08:04:03;;;;;;;10.25;7.22;;;;;;;2.24;61.32;96056.13;5027370;28;20057;-76
2022/01/29 08:06:29;;;;;;;13.73;8.73;;;;;;;2.18;61.97;96060.03;5025509;28;20033;-76
2022/01/29 08:08:55;;;;;;;13.95;8.10;;;;;;;2.19;61.76;96059.91;5027608;28;20334;-77
2022/01/29 08:11:20;;;;;;;11.73;8.10;;;;;;;2.33;61.22;96066.88;5024729;28;20056;-75
2022/01/29 08:13:46;;;;;;;12.02;7.43;;;;;;;2.37;61.35;96067.50;5026031;28;20069;-76
2022/01/29 08:16:13;;;;;;;12.88;7.28;;;;;;;2.39;60.88;96070.03;5025080;28;20044;-76
2022/01/29 08:18:38;;;;;;;8.38;6.40;;;;;;;2.31;61.10;96073.22;5009352;28;20038;-76
2022/01/29 08:21:04;;;;;;;10.15;6.50;;;;;;;2.30;60.84;96072.41;5025666;28;20320;-78
2022/01/29 08:23:29;;;;;;;10.23;6.38;;;;;;;2.29;61.37;96069.88;5026626;28;20416;-75
2022/01/29 08:25:54;;;;;;;9.73;6.28;;;;;;;2.23;61.81;96065.84;5025898;28;20550;-77
2022/01/29 08:28:20;;;;;;;8.75;6.40;;;;;;;2.31;61.40;96073.22;5026208;28;20017;-77
2022/01/29 08:30:45;;;;;;;10.95;6.50;;;;;;;2.37;61.59;96072.78;5027052;28;20029;-76
2022/01/29 08:33:16;;;;;;;11.32;6.68;;;;;;;2.50;61.01;96069.28;5026161;28;20048;-77
2022/01/29 08:35:42;;;;;;;8.23;6.35;;;;;;;2.56;60.34;96074.13;5025591;28;20029;-75
2022/01/29 08:38:07;;;;;;;10.60;6.80;;;;;;;2.57;60.08;96076.66;5024752;28;20037;-76
2022/01/29 08:40:33;;;;;;;11.77;7.47;;;;;;;2.65;60.35;96078.75;5027023;28;20982;-75
2022/01/29 08:42:58;;;;;;;9.73;6.53;;;;;;;2.67;59.59;96071.53;5026493;28;20026;-76
2022/01/29 08:45:24;;;;;;;9.05;6.80;;;;;;;2.67;59.54;96073.34;5025795;28;20029;-76
2022/01/29 08:47:49;;;;;;;8.27;6.65;;;;;;;2.71;60.11;96080.94;5025412;28;20029;-74
2022/01/29 08:50:14;;;;;;;10.50;7.22;;;;;;;2.76;59.81;96087.72;5025478;28;20025;-75
2022/01/29 08:52:40;;;;;;;9.77;6.57;;;;;;;2.76;59.87;96080.59;5025162;28;20044;-76
2022/01/29 08:55:07;;;;;;;12.15;6.80;;;;;;;2.62;60.78;96086.06;5024499;28;20037;-75
2022/01/29 08:57:32;;;;;;;9.15;6.47;;;;;;;2.56;60.33;96082.91;5025193;28;20026;-77
2022/01/29 08:59:58;;;;;;;10.35;6.10;;;;;;;2.62;60.31;96086.06;5024565;28;20021;-75
2022/01/29 09:02:23;;;;;;;10.68;6.88;;;;;;;2.65;60.59;96080.53;5024738;28;20025;-75
2022/01/29 09:04:49;;;;;;;8.18;6.47;;;;;;;2.63;60.11;96083.31;5025163;28;20017;-76
2022/01/29 09:07:14;;;;;;;9.13;6.40;;;;;;;2.64;60.06;96089.47;5024065;28;20028;-76
2022/01/29 09:09:43;;;;;;;9.82;6.93;;;;;;;2.68;59.45;96096.22;5026947;28;20025;-76
2022/01/29 09:12:10;;;;;;;10.30;6.75;;;;;;;2.69;59.52;96090.81;5025171;28;20022;-77
2022/01/29 09:14:36;;;;;;;11.15;6.60;;;;;;;2.77;59.24;96097.34;5026420;28;20030;-76
2022/01/29 09:17:01;;;;;;;10.75;6.75;;;;;;;2.79;59.41;96095.47;5025340;28;20017;-77
2022/01/29 09:19:27;;;;;;;9.82;6.97;;;;;;;2.84;59.98;96088.84;5011770;28;20510;-76
2022/01/29 09:21:52;;;;;;;10.02;6.70;;;;;;;2.83;60.42;96089.81;5028749;28;20036;-77
2022/01/29 09:24:18;;;;;;;10.77;7.15;;;;;;;2.90;60.53;96084.88;5029620;28;20018;-76
2022/01/29 09:26:43;;;;;;;9.90;6.53;;;;;;;2.88;59.43;96081.53;5029500;28;20040;-74
2022/01/29 09:29:09;;;;;;;9.93;6.38;;;;;;;2.93;58.69;96078.53;5029016;28;20480;-76
2022/01/29 09:31:34;;;;;;;9.32;6.60;;;;;;;2.86;58.69;96077.28;5030520;28;20029;-76
2022/01/29 09:34:00;;;;;;;7.82;6.00;;;;;;;2.81;58.40;96067.88;5029159;28;20461;-77
2022/01/29 09:36:25;;;;;;;7.05;5.57;;;;;;;2.70;58.61;96073.97;4996233;28;20030;-76
2022/01/29 09:38:51;;;;;;;7.97;5.78;;;;;;;2.68;58.58;96067.06;5029787;28;20412;-76
2022/01/29 09:41:18;;;;;;;8.38;5.97;;;;;;;2.79;58.18;96072.44;5029671;28;20022;-77
2022/01/29 09:43:45;;;;;;;8.75;5.70;;;;;;;2.82;57.96;96076.69;4996526;28;20055;-77
2022/01/29 09:46:12;;;;;;;7.85;5.97;;;;;;;2.94;57.25;96078.41;5010936;28;20025;-77
2022/01/29 09:48:38;;;;;;;8.00;5.93;;;;;;;2.99;57.27;96069.28;5029169;28;20030;-76
2022/01/29 09:51:05;;;;;;;7.65;5.28;;;;;;;2.91;56.78;96073.34;5028595;28;20060;-76
2022/01/29 09:53:30;;;;;;;6.50;5.25;;;;;;;2.87;57.40;96069.22;5029845;28;20184;-75
2022/01/29 09:55:56;;;;;;;10.90;7.10;;;;;;;2.85;57.73;96060.56;5027577;28;20013;-75
2022/01/29 09:58:21;;;;;;;8.02;6.10;;;;;;;2.90;58.04;96073.47;5029619;28;20022;-76
2022/01/29 10:00:47;;;;;;;8.45;5.82;;;;;;;2.85;58.54;96068.50;5028264;28;20022;-76
2022/01/29 10:03:14;;;;;;;7.53;5.75;;;;;;;2.87;58.24;96068.38;5027121;28;20045;-76
2022/01/29 10:05:40;;;;;;;10.90;5.85;;;;;;;2.81;57.88;96074.97;5030233;28;20036;-77
2022/01/29 10:08:06;;;;;;;10.52;6.03;;;;;;;2.84;58.09;96074.75;5028299;28;20025;-78
2022/01/29 10:10:46;;;;;;;7.32;5.93;;;;;;;2.71;58.41;96080.09;5028606;28;20423;-75
2022/01/29 10:13:28;;;;;;;10.23;6.75;;;;;;;2.73;59.08;96083.50;5012143;28;20105;-78
2022/01/29 10:16:08;;;;;;;10.82;5.88;;;;;;;2.70;59.40;96078.41;5027678;28;20424;-75
2022/01/29 10:18:33;;;;;;;13.15;6.53;;;;;;;2.62;59.43;96080.78;5028360;28;20033;-76
2022/01/29 10:21:12;;;;;;;9.80;7.38;;;;;;;2.62;60.34;96075.47;5026753;28;20377;-76
2022/01/29 10:23:37;;;;;;;11.07;7.05;;;;;;;2.59;60.43;96069.47;5028333;28;20044;-76
2022/01/29 10:26:04;;;;;;;11.68;7.78;;;;;;;2.63;60.23;96074.53;5027074;28;20033;-80
2022/01/29 10:28:30;;;;;;;10.25;6.35;;;;;;;2.57;60.87;96079.31;5027852;28;20025;-76
2022/01/29 10:30:58;;;;;;;12.40;6.53;;;;;;;2.59;61.17;96081.84;5010077;28;20396;-76
2022/01/29 10:33:27;;;;;;;12.25;8.20;;;;;;;2.57;61.17;96084.63;5010394;28;20021;-76
2022/01/29 10:36:00;;;;;;;14.65;7.50;;;;;;;2.50;60.87;96083.34;5028080;28;20496;-76
2022/01/29 10:38:27;;;;;;;10.23;6.50;;;;;;;2.45;61.17;96067.78;5026323;28;20021;-77
2022/01/29 10:41:17;;;;;;;16.00;8.60;;;;;;;2.43;61.50;96082.13;5029300;28;20029;-77
2022/01/29 10:46:37;;;;;;;13.80;7.07;;;;;;;2.44;60.64;96083.78;5028218;28;20120;-76
2022/01/29 10:49:03;;;;;;;9.65;7.05;;;;;;;2.48;61.39;96090.56;5027874;28;20268;-75
2022/01/29 10:51:28;;;;;;;11.63;7.45;;;;;;;2.48;60.02;96085.28;5010189;28;20040;-75
2022/01/29 10:53:54;;;;;;;9.98;7.00;;;;;;;2.47;60.64;96089.72;5010752;28;20049;-74
2022/01/29 10:56:20;;;;;;;11.95;7.90;;;;;;;2.47;61.04;96088.88;5009721;28;20050;-75
2022/01/29 10:58:50;;;;;;;11.73;7.25;;;;;;;2.42;60.65;96096.31;5010830;28;20072;-76
2022/01/29 11:01:20;;;;;;;11.07;7.45;;;;;;;2.45;61.97;96093.44;5026883;28;20025;-75
2022/01/29 11:03:45;;;;;;;14.25;7.88;;;;;;;2.43;61.50;96087.41;5027636;28;20083;-75
2022/01/29 11:06:17;;;;;;;11.65;7.30;;;;;;;2.44;61.39;96083.78;5027584;28;20080;-76
2022/01/29 11:08:43;;;;;;;9.68;6.78;;;;;;;2.40;60.51;96072.56;5026091;28;20104;-76
2022/01/29 11:11:08;;;;;;;11.35;6.72;;;;;;;2.47;61.06;96078.28;5027415;28;20026;-78
2022/01/29 11:13:34;;;;;;;10.57;6.95;;;;;;;2.41;60.96;96068.97;4993212;28;20498;-77
2022/01/29 11:16:00;;;;;;;14.38;7.90;;;;;;;2.42;60.62;96069.84;5010560;28;20758;-77
2022/01/29 11:18:26;;;;;;;10.55;7.05;;;;;;;2.45;61.19;96066.97;5009871;28;20092;-78
2022/01/29 11:20:52;;;;;;;12.40;7.50;;;;;;;2.49;61.53;96064.91;5026254;28;20065;-77
2022/01/29 11:23:18;;;;;;;13.35;7.40;;;;;;;2.49;60.79;96065.78;5027183;28;20389;-79
2022/01/29 11:25:43;;;;;;;11.25;7.35;;;;;;;2.46;61.15;96058.06;5025835;28;20083;-76
2022/01/29 11:28:14;;;;;;;12.00;7.93;;;;;;;2.55;60.11;96070.63;5027356;28;20029;-77
2022/01/29 11:30:43;;;;;;;13.20;8.50;;;;;;;2.56;60.02;96059.06;5025596;28;20021;-79
2022/01/29 11:33:09;;;;;;;15.68;9.23;;;;;;;2.56;60.19;96061.72;5010251;28;20033;-77
2022/01/29 11:35:49;;;;;;;13.77;8.45;;;;;;;2.64;60.03;96068.28;5026347;28;20057;-77
2022/01/29 11:38:14;;;;;;;15.35;7.57;;;;;;;2.63;59.78;96066.59;5026511;28;20105;-77
2022/01/29 11:41:00;;;;;;;13.93;8.05;;;;;;;2.66;59.47;96061.88;5010790;28;20037;-79
2022/01/29 11:43:29;;;;;;;12.43;7.97;;;;;;;2.67;59.55;96068.03;5027176;28;20025;-76
2022/01/29 11:46:07;;;;;;;15.63;8.55;;;;;;;2.64;59.58;96061.19;5027828;28;20021;-77
2022/01/29 11:48:38;;;;;;;14.98;9.15;;;;;;;2.69;60.02;96066.13;5011740;28;20545;-78
2022/01/29 11:51:05;;;;;;;18.33;9.73;;;;;;;2.72;59.74;96069.38;5025812;28;20094;-78